createdAt,value
2023-03-27T00:01:30.697Z,3.84
2023-03-27T00:03:58.829Z,3.83
2023-03-27T00:06:27.420Z,3.82
2023-03-27T00:08:55.797Z,3.79
2023-03-27T00:11:25.103Z,3.75
2023-03-27T00:13:54.891Z,3.73
2023-03-27T00:16:26.753Z,3.71
2023-03-27T00:18:56.037Z,3.71
2023-03-27T00:21:26.062Z,3.68
2023-03-27T00:23:54.597Z,3.74
2023-03-27T00:26:22.987Z,3.80
2023-03-27T00:28:51.183Z,3.87
2023-03-27T00:31:19.156Z,3.95
2023-03-27T00:33:47.199Z,4.01
2023-03-27T00:36:15.419Z,4.07
2023-03-27T00:38:43.915Z,4.11
2023-03-27T00:41:12.743Z,4.14
2023-03-27T00:43:43.976Z,4.18
2023-03-27T00:46:15.689Z,4.24
2023-03-27T00:48:48.126Z,4.29
2023-03-27T00:51:17.240Z,4.32
2023-03-27T00:53:47.719Z,4.31
2023-03-27T00:56:16.736Z,4.30
2023-03-27T00:58:49.822Z,4.29
2023-03-27T01:01:20.340Z,4.32
2023-03-27T01:03:50.298Z,4.38
2023-03-27T01:06:19.312Z,4.46
2023-03-27T01:08:48.300Z,4.55
2023-03-27T01:11:35.213Z,4.64
2023-03-27T01:14:24.911Z,4.73
2023-03-27T01:17:02.114Z,4.83
2023-03-27T01:19:36.584Z,4.91
2023-03-27T01:22:40.800Z,4.99
2023-03-27T01:25:46.669Z,5.06
2023-03-27T01:28:24.546Z,5.14
2023-03-27T01:31:15.588Z,5.18
2023-03-27T01:34:14.491Z,5.27
2023-03-27T01:37:14.829Z,5.35
2023-03-27T01:40:08.003Z,5.44
2023-03-27T01:42:58.641Z,5.68
2023-03-27T01:45:48.221Z,5.91
2023-03-27T01:48:18.848Z,6.00
2023-03-27T01:51:03.740Z,6.06
2023-03-27T01:53:47.252Z,6.10
2023-03-27T01:56:26.835Z,6.14
2023-03-27T01:59:06.820Z,6.29
2023-03-27T02:01:39.494Z,6.86
2023-03-27T02:04:13.640Z,6.90
2023-03-27T02:06:51.577Z,7.08
2023-03-27T02:09:27.057Z,7.22
2023-03-27T02:12:04.838Z,7.55
2023-03-27T02:14:38.431Z,7.59
2023-03-27T02:17:13.003Z,7.60
2023-03-27T02:19:50.586Z,7.50
2023-03-27T02:22:18.894Z,7.37
2023-03-27T02:24:49.079Z,7.37
2023-03-27T02:27:23.684Z,7.25
2023-03-27T02:30:05.769Z,7.19
2023-03-27T02:32:35.710Z,7.07
2023-03-27T02:35:30.687Z,7.08
2023-03-27T02:38:19.252Z,7.05
2023-03-27T02:41:36.368Z,6.98
2023-03-27T02:44:17.513Z,7.00
2023-03-27T02:47:19.213Z,6.98
2023-03-27T02:49:55.298Z,6.98
2023-03-27T02:52:29.005Z,6.97
2023-03-27T02:55:06.589Z,6.90
2023-03-27T02:57:39.350Z,6.84
2023-03-27T03:00:34.001Z,6.80
2023-03-27T03:03:18.244Z,6.75
2023-03-27T03:05:50.893Z,6.71
2023-03-27T03:08:21.755Z,6.67
2023-03-27T03:10:50.172Z,6.60
2023-03-27T03:13:18.711Z,6.53
2023-03-27T03:15:48.899Z,6.48
2023-03-27T03:18:18.483Z,6.48
2023-03-27T03:20:47.339Z,6.45
2023-03-27T03:23:16.113Z,6.40
2023-03-27T03:25:44.805Z,6.40
2023-03-27T03:28:13.685Z,6.35
2023-03-27T03:30:42.984Z,6.28
2023-03-27T03:33:14.380Z,6.29
2023-03-27T03:35:43.325Z,6.29
2023-03-27T03:38:28.052Z,6.27
2023-03-27T03:40:58.624Z,6.26
2023-03-27T03:43:29.121Z,6.32
2023-03-27T03:45:57.747Z,6.31
2023-03-27T03:48:26.739Z,6.28
2023-03-27T03:50:55.101Z,6.28
2023-03-27T03:53:23.454Z,6.26
2023-03-27T03:55:53.422Z,6.26
2023-03-27T03:58:21.882Z,6.27
2023-03-27T04:01:05.222Z,6.23
2023-03-27T04:03:39.227Z,6.18
2023-03-27T04:06:08.157Z,6.17
2023-03-27T04:08:37.672Z,6.08
2023-03-27T04:11:06.088Z,6.13
2023-03-27T04:13:56.958Z,6.14
2023-03-27T04:16:34.119Z,6.09
2023-03-27T04:19:07.187Z,6.11
2023-03-27T04:21:36.540Z,6.14
2023-03-27T04:24:05.361Z,6.16
2023-03-27T04:26:43.766Z,6.13
2023-03-27T04:29:30.386Z,6.13
2023-03-27T04:32:01.494Z,6.15
2023-03-27T04:34:41.960Z,6.16
2023-03-27T04:37:43.074Z,6.23
2023-03-27T04:40:25.493Z,6.18
2023-03-27T04:42:56.000Z,6.16
2023-03-27T04:45:25.784Z,6.18
2023-03-27T04:47:54.882Z,6.23
2023-03-27T04:50:23.373Z,6.17
2023-03-27T04:52:52.626Z,6.17
2023-03-27T04:55:24.042Z,6.18
2023-03-27T04:57:53.438Z,6.18
2023-03-27T05:00:23.952Z,6.17
2023-03-27T05:03:28.975Z,6.19
2023-03-27T05:06:12.154Z,6.15
2023-03-27T05:08:41.622Z,6.19
2023-03-27T05:11:15.944Z,6.19
2023-03-27T05:13:44.764Z,6.21
2023-03-27T05:16:14.104Z,6.22
2023-03-27T05:18:46.016Z,6.29
2023-03-27T05:21:14.877Z,6.31
2023-03-27T05:23:43.404Z,6.35
2023-03-27T05:26:11.391Z,6.35
2023-03-27T05:28:59.428Z,6.42
2023-03-27T05:31:28.414Z,6.47
2023-03-27T05:34:05.912Z,6.49
2023-03-27T05:36:35.513Z,6.50
2023-03-27T05:39:04.648Z,6.53
2023-03-27T05:41:47.476Z,6.59
2023-03-27T05:44:23.747Z,6.60
2023-03-27T05:46:51.981Z,6.69
2023-03-27T05:49:25.640Z,6.73
2023-03-27T05:51:58.329Z,6.74
2023-03-27T05:54:26.504Z,6.77
2023-03-27T05:56:58.953Z,6.83
2023-03-27T05:59:27.290Z,6.87
2023-03-27T06:01:59.597Z,6.92
2023-03-27T06:04:36.880Z,6.98
2023-03-27T06:07:12.719Z,6.99
2023-03-27T06:09:41.272Z,6.96
2023-03-27T06:12:31.039Z,7.03
2023-03-27T06:15:07.485Z,7.06
2023-03-27T06:17:42.556Z,7.00
2023-03-27T06:20:12.721Z,7.05
2023-03-27T06:22:50.431Z,7.03
2023-03-27T06:25:20.438Z,7.07
2023-03-27T06:27:51.404Z,7.08
2023-03-27T06:30:22.708Z,7.14
2023-03-27T06:33:12.816Z,7.14
2023-03-27T06:35:43.196Z,7.18
2023-03-27T06:38:25.456Z,7.14
2023-03-27T06:40:53.540Z,7.18
2023-03-27T06:43:23.537Z,7.24
2023-03-27T06:46:03.231Z,7.34
2023-03-27T06:48:51.257Z,7.41
2023-03-27T06:51:23.171Z,7.42
2023-03-27T06:53:51.822Z,7.49
2023-03-27T06:56:20.035Z,7.48
2023-03-27T06:59:07.269Z,7.50
2023-03-27T07:01:35.588Z,7.50
2023-03-27T07:04:18.712Z,7.48
2023-03-27T07:06:57.476Z,7.47
2023-03-27T07:09:27.691Z,7.49
2023-03-27T07:12:01.077Z,7.49
2023-03-27T07:14:29.150Z,7.52
2023-03-27T07:16:58.075Z,7.58
2023-03-27T07:19:28.362Z,7.63
2023-03-27T07:22:07.399Z,7.64
2023-03-27T07:24:38.456Z,7.73
2023-03-27T07:27:07.902Z,7.80
2023-03-27T07:29:37.317Z,7.85
2023-03-27T07:32:09.152Z,7.91
2023-03-27T07:34:41.207Z,8.02
2023-03-27T07:37:22.776Z,8.06
2023-03-27T07:40:14.133Z,8.19
2023-03-27T07:42:46.188Z,8.26
2023-03-27T07:45:22.598Z,8.30
2023-03-27T07:47:54.891Z,8.29
2023-03-27T07:50:23.627Z,8.37
2023-03-27T07:52:51.876Z,8.38
2023-03-27T07:55:22.326Z,8.48
2023-03-27T07:58:03.162Z,8.57
2023-03-27T08:00:35.805Z,8.58
2023-03-27T08:03:16.697Z,8.63
2023-03-27T08:05:56.773Z,8.71
2023-03-27T08:08:39.689Z,8.64
2023-03-27T08:11:27.310Z,8.71
2023-03-27T08:13:59.449Z,8.78
2023-03-27T08:16:33.939Z,8.80
2023-03-27T08:19:06.863Z,8.79
2023-03-27T08:21:40.972Z,8.68
2023-03-27T08:24:10.536Z,8.57
2023-03-27T08:26:59.576Z,8.53
2023-03-27T08:29:28.548Z,8.51
2023-03-27T08:31:58.400Z,8.62
2023-03-27T08:34:30.971Z,8.69
2023-03-27T08:37:04.537Z,8.91
2023-03-27T08:39:54.701Z,9.01
2023-03-27T08:42:37.348Z,9.07
2023-03-27T08:45:40.760Z,9.09
2023-03-27T08:48:27.686Z,9.08
2023-03-27T08:51:11.625Z,8.99
2023-03-27T08:54:15.657Z,8.95
2023-03-27T08:56:50.240Z,9.02
2023-03-27T08:59:41.862Z,9.03
2023-03-27T09:02:36.430Z,9.06
2023-03-27T09:09:39.935Z,9.22
2023-03-27T09:12:29.072Z,9.33
2023-03-27T09:15:33.323Z,9.45
2023-03-27T09:18:10.036Z,9.51
2023-03-27T09:20:45.441Z,9.62
2023-03-27T09:23:28.298Z,9.70
2023-03-27T09:26:30.418Z,9.72
2023-03-27T09:29:29.237Z,9.75
2023-03-27T09:32:20.583Z,9.62
2023-03-27T09:34:50.170Z,9.73
2023-03-27T09:37:19.567Z,9.84
2023-03-27T09:40:23.538Z,9.87
2023-03-27T09:43:14.093Z,9.81
2023-03-27T09:45:48.360Z,9.95
2023-03-27T09:48:50.665Z,10.05
2023-03-27T09:51:40.694Z,10.14
2023-03-27T09:54:32.885Z,10.17
2023-03-27T09:57:07.219Z,10.12
2023-03-27T09:59:54.769Z,10.11
2023-03-27T10:02:28.495Z,10.11
2023-03-27T10:05:01.980Z,10.17
2023-03-27T10:07:34.697Z,10.16
2023-03-27T10:10:42.155Z,10.21
2023-03-27T10:13:26.374Z,10.31
2023-03-27T10:16:06.226Z,10.27
2023-03-27T10:18:54.521Z,10.29
2023-03-27T10:21:31.698Z,10.14
2023-03-27T10:24:06.716Z,10.26
2023-03-27T10:26:55.977Z,10.30
2023-03-27T10:29:28.927Z,10.30
2023-03-27T10:32:02.260Z,10.41
2023-03-27T10:34:59.770Z,10.56
2023-03-27T10:37:37.288Z,10.59
2023-03-27T10:40:40.007Z,10.77
2023-03-27T10:43:29.867Z,10.88
2023-03-27T10:46:05.936Z,10.93
2023-03-27T10:48:47.778Z,11.11
2023-03-27T10:51:28.383Z,11.17
2023-03-27T10:54:14.549Z,11.24
2023-03-27T10:57:00.060Z,11.32
2023-03-27T10:59:41.924Z,11.48
2023-03-27T11:02:37.470Z,11.68
2023-03-27T11:05:12.933Z,11.86
2023-03-27T11:08:12.345Z,12.06
2023-03-27T11:10:46.957Z,12.22
2023-03-27T11:13:28.421Z,12.36
2023-03-27T11:16:23.959Z,12.39
2023-03-27T11:19:30.512Z,12.25
2023-03-27T11:23:05.004Z,12.12
2023-03-27T11:26:12.343Z,11.99
2023-03-27T11:28:50.093Z,12.07
2023-03-27T11:31:46.479Z,12.07
2023-03-27T11:34:38.190Z,12.12
2023-03-27T11:37:37.802Z,12.24
2023-03-27T11:40:28.195Z,12.32
2023-03-27T11:43:01.564Z,12.50
2023-03-27T11:45:42.651Z,12.57
2023-03-27T11:48:34.289Z,12.63
2023-03-27T11:51:29.688Z,12.70
2023-03-27T11:54:14.951Z,12.69
2023-03-27T11:57:04.916Z,12.64
2023-03-27T12:00:05.472Z,12.66
2023-03-27T12:03:01.944Z,12.75
2023-03-27T12:05:43.214Z,12.86
2023-03-27T12:08:31.093Z,13.00
2023-03-27T12:11:03.610Z,13.07
2023-03-27T12:13:47.729Z,13.22
2023-03-27T12:16:57.809Z,13.20
2023-03-27T12:19:53.216Z,13.16
2023-03-27T12:22:37.085Z,13.07
2023-03-27T12:25:33.626Z,13.06
2023-03-27T12:28:23.899Z,13.00
2023-03-27T12:31:34.141Z,12.79
2023-03-27T12:34:30.790Z,12.72
2023-03-27T12:37:02.672Z,12.64
2023-03-27T12:39:46.094Z,12.58
2023-03-27T12:42:44.099Z,12.45
2023-03-27T12:45:22.331Z,12.33
2023-03-27T12:48:10.203Z,12.24
2023-03-27T12:50:47.505Z,12.18
2023-03-27T12:53:42.114Z,12.06
2023-03-27T12:56:25.584Z,12.03
2023-03-27T12:58:55.660Z,12.02
2023-03-27T13:01:52.715Z,12.02
2023-03-27T13:04:52.266Z,11.83
2023-03-27T13:07:43.398Z,11.82
2023-03-27T13:10:36.046Z,11.79
2023-03-27T13:13:23.470Z,11.74
2023-03-27T13:16:01.341Z,11.71
2023-03-27T13:19:05.609Z,11.66
2023-03-27T13:21:57.333Z,11.74
2023-03-27T13:24:53.332Z,11.83
2023-03-27T13:27:49.538Z,11.92
2023-03-27T13:30:40.595Z,11.97
2023-03-27T13:33:18.251Z,12.11
2023-03-27T13:36:15.209Z,12.20
2023-03-27T13:38:53.096Z,12.17
2023-03-27T13:42:10.722Z,12.39
2023-03-27T13:45:20.830Z,12.51
2023-03-27T13:48:25.883Z,12.54
2023-03-27T13:51:27.535Z,12.51
2023-03-27T13:54:33.634Z,12.48
2023-03-27T13:57:24.229Z,12.51
2023-03-27T14:00:21.109Z,12.47
2023-03-27T14:03:16.456Z,12.58
2023-03-27T14:06:15.970Z,12.67
2023-03-27T14:08:56.048Z,12.81
2023-03-27T14:12:15.673Z,12.99
2023-03-27T14:15:22.569Z,13.21
2023-03-27T14:18:37.423Z,13.25
2023-03-27T14:21:10.263Z,13.38
2023-03-27T14:23:50.917Z,13.45
2023-03-27T14:26:42.821Z,13.65
2023-03-27T14:29:16.866Z,13.86
2023-03-27T14:31:50.894Z,13.94
2023-03-27T14:34:53.382Z,13.98
2023-03-27T14:37:39.431Z,14.05
2023-03-27T14:40:23.337Z,14.04
2023-03-27T14:42:56.508Z,14.31
2023-03-27T14:45:27.867Z,14.34
2023-03-27T14:48:19.325Z,14.46
2023-03-27T14:50:54.378Z,14.44
2023-03-27T14:53:29.650Z,14.33
2023-03-27T14:56:37.377Z,14.20
2023-03-27T14:59:15.709Z,14.03
2023-03-27T15:01:52.439Z,13.99
2023-03-27T15:04:25.462Z,13.91
2023-03-27T15:07:13.292Z,13.83
2023-03-27T15:10:07.407Z,13.65
2023-03-27T15:12:57.048Z,13.39
2023-03-27T15:15:47.085Z,13.35
2023-03-27T15:18:36.442Z,13.28
2023-03-27T15:21:17.152Z,13.23
2023-03-27T15:24:10.947Z,13.10
2023-03-27T15:26:42.636Z,13.03
2023-03-27T15:29:27.494Z,12.99
2023-03-27T15:31:57.445Z,12.96
2023-03-27T15:34:34.707Z,12.88
2023-03-27T15:37:10.951Z,12.82
2023-03-27T15:39:58.711Z,12.71
2023-03-27T15:42:44.465Z,12.56
2023-03-27T15:45:16.800Z,12.33
2023-03-27T15:47:57.095Z,12.11
2023-03-27T15:50:31.187Z,11.91
2023-03-27T15:53:01.673Z,11.55
2023-03-27T15:55:44.926Z,11.01
2023-03-27T15:58:26.476Z,10.82
2023-03-27T16:01:03.475Z,10.69
2023-03-27T16:03:48.739Z,10.54
2023-03-27T16:06:45.972Z,10.35
2023-03-27T16:09:23.968Z,10.15
2023-03-27T16:11:54.776Z,10.08
2023-03-27T16:14:34.942Z,9.99
2023-03-27T16:17:20.613Z,9.89
2023-03-27T16:19:58.065Z,9.80
2023-03-27T16:22:35.772Z,9.73
2023-03-27T16:25:08.794Z,9.71
2023-03-27T16:27:42.864Z,9.70
2023-03-27T16:30:22.688Z,9.68
2023-03-27T16:32:51.780Z,9.67
2023-03-27T16:35:20.685Z,9.67
2023-03-27T16:37:48.935Z,9.65
2023-03-27T16:40:17.288Z,9.63
2023-03-27T16:42:45.590Z,9.63
2023-03-27T16:45:13.582Z,9.63
2023-03-27T16:47:42.296Z,9.60
2023-03-27T16:50:18.723Z,9.58
2023-03-27T16:52:46.782Z,9.55
2023-03-27T16:55:17.939Z,9.53
2023-03-27T16:57:48.929Z,9.48
2023-03-27T17:00:22.413Z,9.44
2023-03-27T17:02:50.455Z,9.43
2023-03-27T17:05:18.649Z,9.44
2023-03-27T17:07:48.430Z,9.43
2023-03-27T17:10:16.946Z,9.43
2023-03-27T17:12:45.178Z,9.42
2023-03-27T17:15:15.111Z,9.42
2023-03-27T17:17:43.994Z,9.41
2023-03-27T17:20:15.436Z,9.41
2023-03-27T17:22:45.829Z,9.41
2023-03-27T17:25:14.275Z,9.41
2023-03-27T17:27:42.348Z,9.42
2023-03-27T17:30:16.028Z,9.42
2023-03-27T17:32:46.631Z,9.42
2023-03-27T17:35:16.692Z,9.39
2023-03-27T17:37:47.016Z,9.37
2023-03-27T17:40:15.558Z,9.35
2023-03-27T17:42:44.003Z,9.34
2023-03-27T17:45:19.651Z,9.32
2023-03-27T17:47:48.155Z,9.31
2023-03-27T17:50:16.547Z,9.30
2023-03-27T17:52:44.541Z,9.30
2023-03-27T17:55:13.641Z,9.30
2023-03-27T17:57:42.266Z,9.31
2023-03-27T18:00:10.797Z,9.30
2023-03-27T18:02:43.656Z,9.26
2023-03-27T18:05:12.152Z,9.23
2023-03-27T18:07:40.841Z,9.22
2023-03-27T18:10:12.815Z,9.20
2023-03-27T18:12:41.122Z,9.17
2023-03-27T18:15:09.507Z,9.16
2023-03-27T18:17:41.661Z,9.16
2023-03-27T18:20:15.942Z,9.14
2023-03-27T18:22:44.609Z,9.15
2023-03-27T18:25:12.977Z,9.15
2023-03-27T18:27:41.212Z,9.15
2023-03-27T18:30:13.504Z,9.12
2023-03-27T18:32:43.313Z,9.12
2023-03-27T18:35:17.212Z,9.13
2023-03-27T18:37:46.877Z,9.11
2023-03-27T18:40:18.304Z,9.10
2023-03-27T18:42:46.556Z,9.12
2023-03-27T18:45:16.940Z,9.10
2023-03-27T18:47:45.161Z,9.06
2023-03-27T18:50:14.666Z,8.99
2023-03-27T18:52:43.171Z,8.96
2023-03-27T18:55:11.575Z,8.98
2023-03-27T18:57:39.868Z,8.93
2023-03-27T19:00:09.668Z,8.87
2023-03-27T19:02:37.777Z,8.81
2023-03-27T19:05:07.167Z,8.76
2023-03-27T19:07:36.741Z,8.67
2023-03-27T19:10:14.151Z,8.57
2023-03-27T19:12:46.291Z,8.46
2023-03-27T19:15:33.400Z,8.36
2023-03-27T19:18:21.348Z,8.33
2023-03-27T19:21:14.580Z,8.24
2023-03-27T19:23:44.060Z,8.18
2023-03-27T19:26:16.646Z,8.14
2023-03-27T19:28:50.973Z,8.11
2023-03-27T19:31:19.203Z,8.08
2023-03-27T19:33:47.362Z,8.07
2023-03-27T19:36:15.908Z,8.06
2023-03-27T19:38:44.432Z,8.06
2023-03-27T19:41:13.863Z,8.04
2023-03-27T19:43:42.043Z,8.03
2023-03-27T19:46:16.277Z,8.05
2023-03-27T19:48:47.474Z,8.09
2023-03-27T19:51:29.733Z,8.10
2023-03-27T19:53:57.683Z,8.08
2023-03-27T19:56:28.880Z,8.06
2023-03-27T19:58:58.210Z,8.03
2023-03-27T20:01:28.504Z,8.02
2023-03-27T20:03:59.683Z,8.00
2023-03-27T20:06:28.906Z,7.97
2023-03-27T20:09:01.159Z,7.93
2023-03-27T20:11:29.275Z,7.88
2023-03-27T20:13:57.472Z,7.87
2023-03-27T20:16:27.779Z,7.83
2023-03-27T20:19:05.942Z,7.81
2023-03-27T20:21:39.709Z,7.87
2023-03-27T20:24:11.824Z,7.74
2023-03-27T20:26:48.113Z,7.43
2023-03-27T20:29:20.809Z,7.01
2023-03-27T20:31:49.104Z,6.64
2023-03-27T20:34:19.725Z,6.36
2023-03-27T20:36:48.515Z,5.85
2023-03-27T20:39:27.803Z,5.37
2023-03-27T20:41:59.116Z,5.11
2023-03-27T20:44:35.242Z,4.80
2023-03-27T20:47:12.123Z,4.26
2023-03-27T20:49:43.871Z,3.99
2023-03-27T20:52:19.541Z,3.86
2023-03-27T20:54:48.004Z,3.64
2023-03-27T20:57:19.913Z,3.42
2023-03-27T20:59:48.303Z,3.33
2023-03-27T21:02:19.530Z,3.22
2023-03-27T21:04:48.419Z,3.09
2023-03-27T21:07:16.944Z,3.01
2023-03-27T21:09:48.014Z,2.98
2023-03-27T21:12:16.388Z,2.75
2023-03-27T21:14:44.408Z,2.59
2023-03-27T21:17:13.359Z,2.50
2023-03-27T21:19:41.830Z,2.30
2023-03-27T21:22:10.388Z,2.21
2023-03-27T21:24:40.718Z,2.11
2023-03-27T21:27:08.926Z,2.07
2023-03-27T21:29:37.105Z,1.99
2023-03-27T21:32:05.862Z,1.89
2023-03-27T21:34:33.919Z,1.86
2023-03-27T21:37:03.163Z,1.79
2023-03-27T21:39:31.613Z,1.77
2023-03-27T21:41:59.749Z,1.69
2023-03-27T21:44:28.459Z,1.61
2023-03-27T21:46:56.676Z,1.52
2023-03-27T21:49:26.588Z,1.45
2023-03-27T21:51:55.070Z,1.38
2023-03-27T21:54:23.191Z,1.34
2023-03-27T21:56:51.145Z,1.22
2023-03-27T21:59:19.240Z,1.13
2023-03-27T22:01:47.841Z,1.11
2023-03-27T22:04:16.078Z,1.03
2023-03-27T22:06:44.460Z,0.98
2023-03-27T22:09:12.689Z,0.91
2023-03-27T22:11:40.846Z,0.88
2023-03-27T22:14:09.779Z,0.82
2023-03-27T22:16:38.246Z,0.79
2023-03-27T22:19:07.907Z,0.77
2023-03-27T22:21:36.011Z,0.71
2023-03-27T22:24:04.661Z,0.68
2023-03-27T22:26:35.960Z,0.65
2023-03-27T22:29:05.570Z,0.66
2023-03-27T22:31:34.054Z,0.63
2023-03-27T22:34:04.640Z,0.59
2023-03-27T22:36:33.547Z,0.55
2023-03-27T22:39:01.757Z,0.51
2023-03-27T22:41:29.967Z,0.48
2023-03-27T22:44:01.793Z,0.43
2023-03-27T22:46:31.174Z,0.40
2023-03-27T22:48:59.344Z,0.33
2023-03-27T22:51:31.394Z,0.31
2023-03-27T22:54:00.126Z,0.30
2023-03-27T22:56:28.100Z,0.29
2023-03-27T22:58:56.234Z,0.25
2023-03-27T23:01:24.273Z,0.20
2023-03-27T23:03:52.421Z,0.16
2023-03-27T23:06:23.245Z,0.08
2023-03-27T23:08:51.463Z,0.07
2023-03-27T23:11:20.473Z,0.04
2023-03-27T23:13:48.848Z,0.05
2023-03-27T23:16:16.803Z,0.02
2023-03-27T23:18:44.948Z,-0.02
2023-03-27T23:21:16.697Z,-0.09
2023-03-27T23:23:45.086Z,-0.17
2023-03-27T23:26:14.875Z,-0.20
2023-03-27T23:28:42.882Z,-0.21
2023-03-27T23:31:14.690Z,-0.25
2023-03-27T23:33:46.054Z,-0.29
2023-03-27T23:36:16.762Z,-0.30
2023-03-27T23:38:44.880Z,-0.33
2023-03-27T23:41:14.785Z,-0.31
2023-03-27T23:43:43.044Z,-0.31
2023-03-27T23:46:11.655Z,-0.31
2023-03-27T23:48:41.995Z,-0.30
2023-03-27T23:51:11.802Z,-0.31
2023-03-27T23:53:40.486Z,-0.31
2023-03-27T23:56:09.216Z,-0.31
2023-03-27T23:58:38.114Z,-0.33
